Time;durP1;ratioP1;P1;durP2;ratioP2;P2;SDS_P1;SDS_P2;PMS_P1;PMS_P2;Temp;Humidity;BMP_temperature;BMP_pressure;BME280_temperature;BME280_humidity;BME280_pressure;Samples;Min_cycle;Max_cycle;Signal;HPM_P1;HPM_P2
2024/02/22 00:01:37;;;;;;;18.63;15.20;;;9.00;99.90;;;;;;5063591;28;20046;-73
2024/02/22 00:04:03;;;;;;;22.45;16.35;;;9.00;99.90;;;;;;5052245;28;20048;-73
2024/02/22 00:06:29;;;;;;;15.52;14.07;;;9.00;99.90;;;;;;5044628;28;20131;-73
2024/02/22 00:08:55;;;;;;;16.55;14.88;;;9.00;99.90;;;;;;5061364;28;20150;-73
2024/02/22 00:11:21;;;;;;;14.93;13.52;;;9.00;99.90;;;;;;5037282;28;20041;-73
2024/02/22 00:13:47;;;;;;;14.77;13.27;;;9.00;99.90;;;;;;5049794;28;20622;-73
2024/02/22 00:16:14;;;;;;;15.30;13.82;;;9.00;99.90;;;;;;5047250;28;20039;-73
2024/02/22 00:18:41;;;;;;;16.90;15.20;;;9.00;99.90;;;;;;5056452;28;20528;-73
2024/02/22 00:21:08;;;;;;;15.38;13.98;;;9.10;99.90;;;;;;5054616;28;20373;-73
2024/02/22 00:23:34;;;;;;;16.45;14.73;;;9.10;99.90;;;;;;5039348;28;20036;-73
2024/02/22 00:26:00;;;;;;;16.88;14.05;;;9.10;99.90;;;;;;5064539;28;20036;-73
2024/02/22 00:28:26;;;;;;;16.20;14.50;;;9.10;99.90;;;;;;5046978;28;20050;-73
2024/02/22 00:30:52;;;;;;;26.38;17.83;;;9.10;99.90;;;;;;5064112;28;20047;-74
2024/02/22 00:33:18;;;;;;;19.88;15.82;;;9.10;99.90;;;;;;5062473;28;20515;-73
2024/02/22 00:35:46;;;;;;;17.10;15.23;;;9.10;99.90;;;;;;5050069;28;20048;-73
2024/02/22 00:38:12;;;;;;;23.80;16.15;;;9.10;99.90;;;;;;5039663;28;20368;-73
2024/02/22 00:40:38;;;;;;;17.83;15.27;;;9.10;99.90;;;;;;5053406;28;20105;-73
2024/02/22 00:43:04;;;;;;;24.45;16.50;;;9.10;99.90;;;;;;5055095;28;20050;-73
2024/02/22 00:45:34;;;;;;;19.75;15.57;;;9.10;99.90;;;;;;5040054;28;20436;-73
2024/02/22 00:48:03;;;;;;;16.65;14.45;;;9.20;99.90;;;;;;5072375;28;20396;-73
2024/02/22 00:50:29;;;;;;;15.77;14.07;;;9.20;99.90;;;;;;5051396;28;20036;-72
2024/02/22 00:52:55;;;;;;;18.17;15.05;;;9.20;99.90;;;;;;5057577;28;20049;-73
2024/02/22 00:55:21;;;;;;;18.80;14.63;;;9.20;99.90;;;;;;5044136;28;20504;-73
2024/02/22 00:57:47;;;;;;;20.88;16.10;;;9.20;99.90;;;;;;5051229;28;20043;-73
2024/02/22 01:00:14;;;;;;;20.00;15.32;;;9.20;99.90;;;;;;5052764;28;20174;-73
2024/02/22 01:02:40;;;;;;;19.60;15.18;;;9.20;99.90;;;;;;5054810;28;20055;-73
2024/02/22 01:05:06;;;;;;;23.13;15.45;;;9.20;99.90;;;;;;5052582;28;20117;-73
2024/02/22 01:07:32;;;;;;;17.80;14.10;;;9.30;99.90;;;;;;5038341;28;21118;-73
2024/02/22 01:09:58;;;;;;;16.50;13.73;;;9.20;99.90;;;;;;5037938;28;20043;-73
2024/02/22 01:12:24;;;;;;;24.58;14.90;;;9.30;99.90;;;;;;5039520;28;20236;-73
2024/02/22 01:14:50;;;;;;;22.83;15.27;;;9.30;99.90;;;;;;5049976;28;20060;-73
2024/02/22 01:17:16;;;;;;;22.10;15.18;;;9.30;99.90;;;;;;5053033;28;20562;-73
2024/02/22 01:19:45;;;;;;;18.50;14.15;;;9.30;99.90;;;;;;5059126;28;20129;-73
2024/02/22 01:22:11;;;;;;;24.00;14.90;;;9.30;99.90;;;;;;5047990;28;20560;-73
2024/02/22 01:24:36;;;;;;;21.35;13.73;;;9.30;99.90;;;;;;5047560;28;20040;-73
2024/02/22 01:27:03;;;;;;;18.77;13.75;;;9.40;99.90;;;;;;5064993;28;20500;-73
2024/02/22 01:29:29;;;;;;;18.45;13.07;;;9.40;99.90;;;;;;5037104;28;20404;-73
2024/02/22 01:31:55;;;;;;;16.10;13.05;;;9.40;99.90;;;;;;5043707;28;20043;-73
2024/02/22 01:34:21;;;;;;;20.45;13.82;;;9.40;99.90;;;;;;5052690;28;20044;-73
2024/02/22 01:36:47;;;;;;;22.48;15.27;;;9.40;99.90;;;;;;5060066;28;20126;-73
2024/02/22 01:39:14;;;;;;;17.52;13.13;;;9.40;99.90;;;;;;5062244;28;20947;-73
2024/02/22 01:41:40;;;;;;;20.10;13.48;;;9.50;99.90;;;;;;5066053;28;20045;-73
2024/02/22 01:44:05;;;;;;;20.23;13.70;;;9.50;99.90;;;;;;5054738;28;20048;-74
2024/02/22 01:46:32;;;;;;;18.65;13.35;;;9.50;99.90;;;;;;5059831;28;20093;-73
2024/02/22 01:49:00;;;;;;;24.90;14.70;;;9.50;99.90;;;;;;5062800;28;20040;-74
2024/02/22 01:51:26;;;;;;;24.50;14.00;;;9.50;99.90;;;;;;5059852;28;20036;-74
2024/02/22 01:53:52;;;;;;;18.02;13.00;;;9.50;99.90;;;;;;5045244;28;20138;-73
2024/02/22 01:56:20;;;;;;;24.67;14.32;;;9.50;99.90;;;;;;5058205;28;20532;-73
2024/02/22 01:58:50;;;;;;;31.88;16.35;;;9.50;99.90;;;;;;5063244;28;20036;-73
2024/02/22 02:01:20;;;;;;;29.05;14.18;;;9.50;99.90;;;;;;5060569;28;20056;-74
2024/02/22 02:03:46;;;;;;;25.15;13.45;;;9.60;99.90;;;;;;5045394;28;20048;-73
2024/02/22 02:06:12;;;;;;;22.33;13.40;;;9.50;99.90;;;;;;5065043;28;20052;-74
2024/02/22 02:08:38;;;;;;;25.45;14.02;;;9.60;99.90;;;;;;5064913;28;20051;-74
2024/02/22 02:11:04;;;;;;;22.65;13.10;;;9.60;99.90;;;;;;5047207;28;20040;-74
2024/02/22 02:13:30;;;;;;;30.48;14.18;;;9.60;99.90;;;;;;5050896;28;20050;-73
2024/02/22 02:15:56;;;;;;;24.13;13.32;;;9.60;99.90;;;;;;5064682;28;20098;-73
2024/02/22 02:18:22;;;;;;;29.90;14.05;;;9.60;99.90;;;;;;5061570;28;20051;-72
2024/02/22 02:20:57;;;;;;;25.65;13.77;;;9.60;99.90;;;;;;5049792;28;20093;-72
2024/02/22 02:23:51;;;;;;;26.63;13.38;;;9.60;99.90;;;;;;5044320;28;20583;-72
2024/02/22 02:26:17;;;;;;;36.95;14.15;;;9.60;99.90;;;;;;5069026;28;20078;-73
2024/02/22 02:28:43;;;;;;;20.27;12.45;;;9.60;99.90;;;;;;5058210;28;20293;-73
2024/02/22 02:31:09;;;;;;;26.92;13.32;;;9.60;99.90;;;;;;5064929;28;20048;-72
2024/02/22 02:33:35;;;;;;;23.80;13.00;;;9.60;99.90;;;;;;5076440;28;20122;-73
2024/02/22 02:36:01;;;;;;;26.77;13.77;;;9.60;99.90;;;;;;5073237;28;20570;-72
2024/02/22 02:38:27;;;;;;;39.55;13.93;;;9.70;99.90;;;;;;5049794;28;20041;-73
2024/02/22 02:40:53;;;;;;;26.27;13.13;;;9.70;99.90;;;;;;5075941;28;20059;-72
2024/02/22 02:43:18;;;;;;;24.73;13.00;;;9.70;99.90;;;;;;5051147;28;20059;-73
2024/02/22 02:45:44;;;;;;;30.45;13.18;;;9.70;99.90;;;;;;5073260;28;20067;-73
2024/02/22 02:48:10;;;;;;;23.55;12.00;;;9.70;99.90;;;;;;5063571;28;20127;-75
2024/02/22 02:50:36;;;;;;;27.08;12.75;;;9.70;99.90;;;;;;5070276;28;20700;-75
2024/02/22 02:53:02;;;;;;;28.25;12.25;;;9.70;99.90;;;;;;5054808;28;20032;-73
2024/02/22 02:55:28;;;;;;;28.58;12.43;;;9.70;99.90;;;;;;5048169;28;20075;-73
2024/02/22 02:57:54;;;;;;;17.88;10.43;;;9.70;99.90;;;;;;5048719;28;20902;-72
2024/02/22 03:00:20;;;;;;;23.30;11.73;;;9.70;99.90;;;;;;5052982;28;20108;-73
2024/02/22 03:02:46;;;;;;;35.22;12.82;;;9.70;99.90;;;;;;5065383;28;20056;-73
2024/02/22 03:05:12;;;;;;;39.90;13.65;;;9.70;99.90;;;;;;5063257;28;20045;-73
2024/02/22 03:07:37;;;;;;;35.20;13.05;;;9.70;99.90;;;;;;5047206;28;20123;-73
2024/02/22 03:10:07;;;;;;;20.25;11.10;;;9.70;99.90;;;;;;5049899;28;20174;-73
2024/02/22 03:12:33;;;;;;;22.60;10.88;;;9.70;99.90;;;;;;5038336;28;20052;-73
2024/02/22 03:15:02;;;;;;;30.58;11.75;;;9.70;99.90;;;;;;5047016;28;20037;-73
2024/02/22 03:17:27;;;;;;;26.45;11.27;;;9.70;99.90;;;;;;5055843;28;20048;-73
2024/02/22 03:19:53;;;;;;;39.78;12.82;;;9.70;99.90;;;;;;5063880;28;20055;-73
2024/02/22 03:22:19;;;;;;;26.10;10.23;;;9.70;99.90;;;;;;5063605;28;20082;-73
2024/02/22 03:24:45;;;;;;;26.58;10.77;;;9.80;99.90;;;;;;5065845;28;20081;-72
2024/02/22 03:27:11;;;;;;;24.25;10.32;;;9.80;99.90;;;;;;5052231;28;20397;-72
2024/02/22 03:29:41;;;;;;;29.63;11.48;;;9.80;99.90;;;;;;5042054;28;20036;-73
2024/02/22 03:32:07;;;;;;;28.63;10.85;;;9.70;99.90;;;;;;5045117;28;20501;-73
2024/02/22 03:34:33;;;;;;;19.45;9.98;;;9.80;99.90;;;;;;5071626;28;20052;-72
2024/02/22 03:37:00;;;;;;;32.75;10.55;;;9.80;99.90;;;;;;5045324;28;20040;-72
2024/02/22 03:39:27;;;;;;;16.25;8.65;;;9.80;99.90;;;;;;5067615;28;20094;-73
2024/02/22 03:41:53;;;;;;;25.77;10.63;;;9.80;99.90;;;;;;5047582;28;20496;-73
2024/02/22 03:44:19;;;;;;;31.15;10.18;;;9.90;99.90;;;;;;5050417;28;20036;-73
2024/02/22 03:46:46;;;;;;;24.85;9.90;;;9.80;99.90;;;;;;5048401;28;20582;-73
2024/02/22 03:49:12;;;;;;;30.05;10.63;;;9.80;99.90;;;;;;5051676;28;20066;-72
2024/02/22 03:51:38;;;;;;;21.20;10.07;;;9.80;99.90;;;;;;5050604;28;20071;-73
2024/02/22 03:54:04;;;;;;;19.67;9.77;;;9.80;99.90;;;;;;5062540;28;20056;-73
2024/02/22 03:56:34;;;;;;;29.33;10.25;;;9.80;99.90;;;;;;5063905;28;20135;-75
2024/02/22 03:59:00;;;;;;;21.83;8.73;;;9.80;99.90;;;;;;5049901;28;20467;-76
2024/02/22 04:01:26;;;;;;;29.33;10.05;;;9.80;99.90;;;;;;5050534;28;21014;-76
2024/02/22 04:03:52;;;;;;;21.75;9.10;;;9.80;99.90;;;;;;5067148;28;20528;-76
2024/02/22 04:06:17;;;;;;;22.42;9.18;;;9.80;99.90;;;;;;5050817;28;20751;-76
2024/02/22 04:08:45;;;;;;;27.38;10.10;;;9.80;99.90;;;;;;5066051;28;20056;-76
2024/02/22 04:11:11;;;;;;;23.75;9.38;;;9.90;99.90;;;;;;5064676;28;21307;-76
2024/02/22 04:13:40;;;;;;;18.95;8.35;;;9.90;99.90;;;;;;5058135;28;20047;-76
2024/02/22 04:16:06;;;;;;;16.00;8.23;;;9.90;99.90;;;;;;5067309;28;20075;-76
2024/02/22 04:18:32;;;;;;;25.88;8.50;;;9.80;99.90;;;;;;5057055;28;20074;-73
2024/02/22 04:21:00;;;;;;;24.42;8.73;;;9.90;99.90;;;;;;5046262;28;20063;-73
2024/02/22 04:23:26;;;;;;;20.67;8.07;;;9.80;99.90;;;;;;5050448;28;20036;-72
2024/02/22 04:25:52;;;;;;;21.77;8.20;;;9.90;99.90;;;;;;5067848;28;20298;-73
2024/02/22 04:28:18;;;;;;;20.98;7.53;;;9.90;99.90;;;;;;5065980;28;20047;-73
2024/02/22 04:30:47;;;;;;;23.40;7.60;;;9.90;99.90;;;;;;5051280;28;20047;-73
2024/02/22 04:33:14;;;;;;;19.38;7.38;;;9.90;99.90;;;;;;5062660;28;20039;-73
2024/02/22 04:35:47;;;;;;;18.13;7.40;;;9.90;99.90;;;;;;5059576;28;20441;-74
2024/02/22 04:38:12;;;;;;;19.02;7.20;;;9.90;99.90;;;;;;5068712;28;20044;-73
2024/02/22 04:40:38;;;;;;;16.63;7.03;;;9.90;99.90;;;;;;5051263;28;20647;-73
2024/02/22 04:43:05;;;;;;;18.05;7.15;;;9.90;99.90;;;;;;5074376;28;20039;-73
2024/02/22 04:45:31;;;;;;;19.30;7.40;;;9.90;99.90;;;;;;5051201;28;20127;-76
2024/02/22 04:48:01;;;;;;;30.75;8.68;;;9.90;99.90;;;;;;5063059;28;20539;-76
2024/02/22 04:50:33;;;;;;;18.88;6.90;;;9.90;99.90;;;;;;5050110;28;20071;-76
2024/02/22 04:53:00;;;;;;;16.42;7.90;;;9.90;99.90;;;;;;5065839;28;20032;-76
2024/02/22 04:55:27;;;;;;;26.20;8.70;;;10.00;99.90;;;;;;5064826;28;20481;-76
2024/02/22 04:57:54;;;;;;;22.00;8.43;;;10.00;99.90;;;;;;5061296;28;20105;-76
2024/02/22 05:00:20;;;;;;;18.30;8.35;;;10.00;99.90;;;;;;5065844;28;20084;-77
2024/02/22 05:02:45;;;;;;;20.80;8.63;;;10.00;99.90;;;;;;5047252;28;20079;-75
2024/02/22 05:05:11;;;;;;;22.05;9.00;;;10.00;99.90;;;;;;5041577;28;20454;-75
2024/02/22 05:07:37;;;;;;;26.10;9.77;;;10.00;99.90;;;;;;5050715;28;20143;-76
2024/02/22 05:10:03;;;;;;;20.98;8.98;;;10.00;99.90;;;;;;5045276;28;20048;-75
2024/02/22 05:12:29;;;;;;;25.73;10.82;;;9.90;99.90;;;;;;5044261;28;20515;-75
2024/02/22 05:14:56;;;;;;;20.98;9.77;;;10.00;99.90;;;;;;5060984;28;20048;-75
2024/02/22 05:17:21;;;;;;;25.92;10.63;;;10.00;99.90;;;;;;5048706;28;20044;-75
2024/02/22 05:19:48;;;;;;;24.48;12.10;;;10.00;99.90;;;;;;5052229;28;20561;-75
2024/02/22 05:22:14;;;;;;;35.00;13.68;;;9.90;99.90;;;;;;5062410;28;20122;-75
2024/02/22 05:24:40;;;;;;;28.98;14.95;;;10.00;99.90;;;;;;5060822;28;20182;-75
2024/02/22 05:27:06;;;;;;;31.77;16.17;;;10.00;99.90;;;;;;5052856;28;20128;-75
2024/02/22 05:29:32;;;;;;;43.05;21.52;;;10.00;99.90;;;;;;5069593;28;20135;-75
2024/02/22 05:31:58;;;;;;;56.85;25.77;;;10.00;99.90;;;;;;4990917;28;1270302;-75
2024/02/22 05:34:27;;;;;;;63.35;28.27;;;10.00;99.90;;;;;;5062143;28;20130;-75
2024/02/22 05:36:54;;;;;;;56.47;28.23;;;10.00;99.90;;;;;;5064421;28;20058;-75
2024/02/22 05:39:20;;;;;;;67.68;31.50;;;10.00;99.90;;;;;;5059912;28;20114;-75
2024/02/22 05:41:46;;;;;;;73.18;31.60;;;10.00;99.90;;;;;;5063293;28;20047;-75
2024/02/22 05:44:14;;;;;;;61.95;29.67;;;10.00;99.90;;;;;;5037893;28;20044;-75
2024/02/22 05:46:40;;;;;;;75.22;30.98;;;10.00;99.90;;;;;;5047195;28;20488;-72
2024/02/22 05:49:06;;;;;;;89.43;33.08;;;10.00;99.90;;;;;;5064106;28;20108;-72
2024/02/22 05:51:32;;;;;;;82.30;31.45;;;10.00;99.90;;;;;;5059933;28;20048;-72
2024/02/22 05:53:58;;;;;;;79.05;33.13;;;10.00;99.90;;;;;;5055346;28;20048;-72
2024/02/22 05:56:24;;;;;;;80.72;32.72;;;10.00;99.90;;;;;;5042987;28;20082;-73
2024/02/22 05:58:49;;;;;;;62.60;29.05;;;10.00;99.90;;;;;;5039265;28;20101;-72
2024/02/22 06:01:16;;;;;;;79.60;31.25;;;10.00;99.90;;;;;;5047815;28;20393;-75
2024/02/22 06:03:42;;;;;;;79.57;31.48;;;10.00;99.90;;;;;;5055900;28;20392;-76
2024/02/22 06:06:08;;;;;;;67.60;30.23;;;10.00;99.90;;;;;;5042543;28;20079;-75
2024/02/22 06:08:34;;;;;;;74.38;30.48;;;10.00;99.90;;;;;;5039245;28;20060;-75
2024/02/22 06:11:02;;;;;;;67.25;28.70;;;10.00;99.90;;;;;;5064958;28;20047;-75
2024/02/22 06:13:28;;;;;;;64.43;27.40;;;10.00;99.90;;;;;;5061785;28;20036;-75
2024/02/22 06:15:54;;;;;;;58.75;26.23;;;10.00;99.90;;;;;;5053032;28;20107;-75
2024/02/22 06:18:20;;;;;;;60.83;25.80;;;9.90;99.90;;;;;;5057412;28;20071;-74
2024/02/22 06:20:46;;;;;;;59.60;24.95;;;9.90;99.90;;;;;;5053949;28;20091;-75
2024/02/22 06:23:13;;;;;;;56.10;23.90;;;9.90;99.90;;;;;;5045433;28;20040;-75
2024/02/22 06:25:40;;;;;;;59.28;25.08;;;10.00;99.90;;;;;;5062722;28;20044;-74
2024/02/22 06:28:07;;;;;;;53.33;21.40;;;10.00;99.90;;;;;;5048217;28;20051;-75
2024/02/22 06:30:33;;;;;;;60.20;20.75;;;10.00;99.90;;;;;;5071527;28;20502;-75
2024/02/22 06:32:59;;;;;;;46.65;18.17;;;9.90;99.90;;;;;;5070719;28;20048;-74
2024/02/22 06:35:24;;;;;;;50.55;17.15;;;9.90;99.90;;;;;;5062203;28;20040;-75
2024/02/22 06:37:51;;;;;;;42.20;16.05;;;9.90;99.90;;;;;;5073159;28;20036;-75
2024/02/22 06:40:17;;;;;;;50.20;14.68;;;9.90;99.90;;;;;;5048855;28;20141;-75
2024/02/22 06:42:43;;;;;;;44.85;13.85;;;9.90;99.90;;;;;;5055977;28;20070;-75
2024/02/22 06:45:09;;;;;;;40.30;12.57;;;9.90;99.90;;;;;;5047105;28;21190;-76
2024/02/22 06:47:35;;;;;;;35.20;10.85;;;9.90;99.90;;;;;;5057738;28;20112;-73
2024/02/22 06:50:03;;;;;;;38.60;10.38;;;9.80;99.90;;;;;;5064537;28;20037;-75
2024/02/22 06:52:30;;;;;;;36.63;10.38;;;9.80;99.90;;;;;;5045962;28;20063;-75
2024/02/22 06:54:56;;;;;;;35.63;9.68;;;9.80;99.90;;;;;;5057199;28;20066;-75
2024/02/22 06:57:22;;;;;;;36.67;10.05;;;9.80;99.90;;;;;;5063124;28;20051;-76
2024/02/22 06:59:48;;;;;;;35.63;10.07;;;9.80;99.90;;;;;;5049756;28;20372;-76
2024/02/22 07:02:15;;;;;;;36.40;9.80;;;9.80;99.90;;;;;;5071032;28;20036;-75
2024/02/22 07:04:45;;;;;;;28.08;9.70;;;9.80;99.90;;;;;;5055811;28;20054;-75
2024/02/22 07:07:11;;;;;;;33.65;12.48;;;9.80;99.90;;;;;;5061197;28;20044;-75
2024/02/22 07:09:38;;;;;;;37.45;12.65;;;9.80;99.90;;;;;;5044588;28;20052;-75
2024/02/22 07:12:04;;;;;;;35.00;11.98;;;9.80;99.90;;;;;;5060466;28;20055;-75
2024/02/22 07:14:30;;;;;;;29.17;11.35;;;9.80;99.90;;;;;;5048223;28;20046;-75
2024/02/22 07:16:56;;;;;;;28.67;11.00;;;9.80;99.90;;;;;;5067503;28;20043;-75
2024/02/22 07:19:22;;;;;;;33.97;11.43;;;9.80;99.90;;;;;;5069874;28;20119;-75
2024/02/22 07:21:48;;;;;;;27.17;10.40;;;9.80;99.90;;;;;;5065594;28;20181;-75
2024/02/22 07:24:14;;;;;;;28.95;10.30;;;9.80;99.90;;;;;;5055775;28;20119;-75
2024/02/22 07:26:40;;;;;;;27.98;9.13;;;9.80;99.90;;;;;;5066814;28;20499;-75
2024/02/22 07:29:05;;;;;;;27.27;9.70;;;9.70;99.90;;;;;;5051156;28;20075;-75
2024/02/22 07:31:31;;;;;;;28.10;8.25;;;9.80;99.90;;;;;;5059069;28;20372;-75
2024/02/22 07:33:57;;;;;;;29.88;8.88;;;9.70;99.90;;;;;;5066868;28;20142;-75
2024/02/22 07:36:24;;;;;;;28.90;8.07;;;9.70;99.90;;;;;;5052897;28;20114;-72
2024/02/22 07:38:50;;;;;;;25.25;8.00;;;9.70;99.90;;;;;;5067448;28;20048;-73
2024/02/22 07:41:17;;;;;;;33.13;8.63;;;9.60;99.90;;;;;;5056874;28;20047;-72
2024/02/22 07:43:47;;;;;;;23.48;7.60;;;9.70;99.90;;;;;;5066322;28;21545;-72
2024/02/22 07:46:14;;;;;;;25.70;7.57;;;9.60;99.90;;;;;;5052129;28;20044;-72
2024/02/22 07:48:43;;;;;;;22.52;7.35;;;9.70;99.90;;;;;;5065515;28;20055;-72
2024/02/22 07:51:10;;;;;;;26.60;7.40;;;9.70;99.90;;;;;;5066693;28;20492;-73
2024/02/22 07:53:37;;;;;;;27.38;7.95;;;9.60;99.90;;;;;;5049524;28;20158;-76
2024/02/22 07:56:11;;;;;;;25.20;7.00;;;9.70;99.90;;;;;;5051702;28;20125;-75
2024/02/22 07:58:47;;;;;;;26.17;7.60;;;9.60;99.90;;;;;;5044320;28;20044;-72
2024/02/22 08:01:14;;;;;;;32.28;8.00;;;9.70;99.90;;;;;;5068959;28;20054;-72
2024/02/22 08:03:41;;;;;;;26.02;7.75;;;9.60;99.90;;;;;;5052073;28;20514;-72
2024/02/22 08:06:07;;;;;;;29.95;8.85;;;9.60;99.90;;;;;;5053924;28;20028;-73
2024/02/22 08:08:33;;;;;;;38.15;10.98;;;9.60;99.90;;;;;;5046585;28;20054;-72
2024/02/22 08:10:59;;;;;;;25.63;9.32;;;9.60;99.90;;;;;;5070292;28;20528;-73
2024/02/22 08:13:25;;;;;;;38.10;11.73;;;9.60;99.90;;;;;;5064140;28;20109;-73
2024/02/22 08:15:50;;;;;;;37.58;12.20;;;9.60;99.90;;;;;;5067847;28;20051;-72
2024/02/22 08:18:16;;;;;;;36.08;13.43;;;9.60;99.90;;;;;;5047928;28;20050;-72
2024/02/22 08:20:42;;;;;;;35.88;14.23;;;9.70;99.90;;;;;;5045728;28;20067;-72
2024/02/22 08:23:14;;;;;;;36.35;13.25;;;9.70;99.90;;;;;;5067208;28;20492;-72
2024/02/22 08:25:40;;;;;;;41.83;15.13;;;9.80;99.90;;;;;;5069265;28;20721;-72
2024/02/22 08:28:09;;;;;;;30.13;13.95;;;9.80;99.90;;;;;;5073751;28;20097;-72
2024/02/22 08:30:36;;;;;;;40.53;14.02;;;9.90;99.90;;;;;;5064399;28;20039;-72
2024/02/22 08:33:02;;;;;;;34.60;14.35;;;9.90;99.90;;;;;;5065850;28;20139;-72
2024/02/22 08:35:28;;;;;;;32.80;13.73;;;9.90;99.90;;;;;;5059833;28;20045;-72
2024/02/22 08:37:54;;;;;;;34.42;13.98;;;9.90;99.90;;;;;;5070252;28;20056;-72
2024/02/22 08:40:23;;;;;;;32.05;13.50;;;9.90;99.90;;;;;;5048133;28;20036;-72
2024/02/22 08:42:49;;;;;;;33.97;14.00;;;10.00;99.90;;;;;;5064124;28;20510;-73
2024/02/22 08:45:16;;;;;;;34.22;14.32;;;9.90;99.90;;;;;;5063916;28;20036;-72
2024/02/22 08:47:43;;;;;;;38.20;13.65;;;9.90;99.90;;;;;;5051210;28;20048;-72
2024/02/22 08:50:12;;;;;;;35.95;13.45;;;9.90;99.90;;;;;;5049223;28;20037;-72
2024/02/22 08:52:41;;;;;;;38.97;14.48;;;9.90;99.90;;;;;;5048125;28;20048;-72
2024/02/22 08:55:11;;;;;;;31.83;12.88;;;9.90;99.90;;;;;;5061133;28;20063;-72
2024/02/22 08:57:37;;;;;;;30.88;12.32;;;9.90;99.90;;;;;;5073109;28;20252;-73
2024/02/22 09:00:05;;;;;;;30.10;12.68;;;9.80;99.90;;;;;;5077036;28;20058;-72
2024/02/22 09:02:31;;;;;;;42.03;21.13;;;9.90;99.90;;;;;;5060189;28;20402;-73
2024/02/22 09:04:58;;;;;;;34.10;17.10;;;9.90;99.90;;;;;;5062849;28;20032;-72
2024/02/22 09:07:24;;;;;;;34.30;14.50;;;10.00;99.90;;;;;;5060318;28;20467;-72
2024/02/22 09:09:51;;;;;;;30.77;15.05;;;10.00;99.90;;;;;;5067187;28;20408;-73
2024/02/22 09:12:17;;;;;;;34.47;14.88;;;10.00;99.90;;;;;;5068291;28;20071;-72
2024/02/22 09:14:43;;;;;;;29.30;13.10;;;10.10;99.90;;;;;;5061861;28;20057;-73
2024/02/22 09:17:09;;;;;;;34.65;14.70;;;10.00;99.90;;;;;;5063142;28;20040;-72
2024/02/22 09:19:35;;;;;;;33.75;14.70;;;10.10;99.90;;;;;;5062407;28;20052;-72
2024/02/22 09:22:02;;;;;;;29.38;13.98;;;10.00;99.90;;;;;;5059300;28;20044;-72
2024/02/22 09:24:29;;;;;;;34.33;14.23;;;10.10;99.90;;;;;;5064681;28;20040;-73
2024/02/22 09:26:55;;;;;;;30.70;14.95;;;10.10;99.90;;;;;;5056100;28;20040;-72
2024/02/22 09:29:21;;;;;;;36.70;15.88;;;10.10;99.90;;;;;;5047010;28;20040;-72
2024/02/22 09:31:47;;;;;;;35.22;14.88;;;10.20;99.90;;;;;;5045965;28;20036;-72
2024/02/22 09:34:13;;;;;;;29.77;14.45;;;10.30;99.90;;;;;;5051418;28;20065;-72
2024/02/22 09:36:40;;;;;;;34.75;14.90;;;10.40;99.90;;;;;;5052200;28;20536;-73
2024/02/22 09:39:07;;;;;;;35.28;14.10;;;10.40;99.90;;;;;;5064899;28;20459;-73
2024/02/22 09:41:33;;;;;;;29.27;13.77;;;10.40;99.90;;;;;;5054005;28;20122;-72
2024/02/22 09:43:59;;;;;;;31.20;14.15;;;10.50;99.90;;;;;;5066998;28;20508;-72
2024/02/22 09:46:26;;;;;;;30.83;14.38;;;10.40;99.90;;;;;;5073499;28;20657;-72
2024/02/22 09:48:52;;;;;;;35.72;14.00;;;10.40;99.90;;;;;;5055775;28;20043;-72
2024/02/22 09:51:18;;;;;;;31.17;13.98;;;10.40;99.90;;;;;;5075437;28;20040;-72
2024/02/22 09:53:45;;;;;;;29.45;13.52;;;10.30;99.90;;;;;;5046452;28;20075;-73
2024/02/22 09:56:14;;;;;;;26.90;12.65;;;10.30;99.90;;;;;;5045816;28;20242;-73
2024/02/22 09:58:40;;;;;;;29.55;14.10;;;10.30;99.90;;;;;;5064230;28;20043;-73
2024/02/22 10:01:06;;;;;;;31.40;13.80;;;10.30;99.90;;;;;;5051064;28;20518;-73
2024/02/22 10:03:37;;;;;;;31.17;14.38;;;10.30;99.90;;;;;;5062822;28;20417;-73
2024/02/22 10:06:04;;;;;;;26.63;14.05;;;10.30;99.90;;;;;;5051060;28;20507;-73
2024/02/22 10:08:29;;;;;;;29.10;13.68;;;10.30;99.90;;;;;;5060056;28;20036;-72
2024/02/22 10:11:11;;;;;;;29.90;13.32;;;10.30;99.90;;;;;;5055303;28;20039;-72
2024/02/22 10:13:37;;;;;;;30.02;13.65;;;10.40;99.90;;;;;;5049968;28;20043;-72
2024/02/22 10:16:15;;;;;;;29.60;13.00;;;10.40;99.90;;;;;;5076118;28;20101;-72
2024/02/22 10:18:41;;;;;;;25.25;13.32;;;10.40;99.90;;;;;;5051323;28;20044;-73
2024/02/22 10:21:17;;;;;;;26.15;14.05;;;10.40;99.90;;;;;;5059001;28;20635;-74
2024/02/22 10:23:52;;;;;;;28.98;14.68;;;10.40;99.90;;;;;;5049243;28;20079;-73
2024/02/22 10:26:18;;;;;;;28.05;14.27;;;10.40;99.90;;;;;;5066831;28;20166;-72
2024/02/22 10:29:08;;;;;;;29.80;14.65;;;10.50;99.90;;;;;;5064479;28;20488;-72
2024/02/22 10:31:40;;;;;;;26.00;14.35;;;10.50;99.90;;;;;;5042831;28;20165;-73
2024/02/22 10:34:06;;;;;;;25.95;15.18;;;10.50;99.90;;;;;;5065096;28;20044;-73
2024/02/22 10:36:34;;;;;;;23.73;14.57;;;10.60;99.90;;;;;;5059681;28;20046;-73
2024/02/22 10:39:03;;;;;;;26.42;15.15;;;10.70;99.90;;;;;;5064372;28;20040;-73
2024/02/22 10:41:29;;;;;;;23.58;14.50;;;10.80;99.90;;;;;;5051444;28;21647;-73
2024/02/22 10:43:57;;;;;;;19.70;13.15;;;10.80;99.90;;;;;;5051482;28;20129;-73
2024/02/22 10:46:27;;;;;;;25.83;13.23;;;10.90;99.90;;;;;;5066936;28;20043;-73
2024/02/22 10:48:53;;;;;;;26.77;14.20;;;10.90;99.90;;;;;;5073860;28;20060;-73
2024/02/22 10:51:20;;;;;;;22.83;14.43;;;11.00;99.90;;;;;;5066485;28;20040;-73
2024/02/22 10:53:51;;;;;;;24.38;13.40;;;11.00;99.90;;;;;;5048944;28;20408;-73
2024/02/22 10:56:22;;;;;;;20.23;13.25;;;11.00;99.90;;;;;;5059448;28;20048;-73
2024/02/22 10:58:51;;;;;;;23.67;13.68;;;11.10;99.90;;;;;;5071410;28;20051;-73
2024/02/22 11:01:18;;;;;;;23.73;13.88;;;11.10;99.90;;;;;;5049131;28;20404;-74
2024/02/22 11:03:44;;;;;;;22.17;14.18;;;11.10;99.90;;;;;;5066897;28;20044;-74
2024/02/22 11:06:13;;;;;;;19.55;13.65;;;11.20;99.90;;;;;;5063371;28;20044;-74
2024/02/22 11:08:49;;;;;;;24.45;14.07;;;11.20;99.90;;;;;;5051423;28;20519;-74
2024/02/22 11:11:29;;;;;;;23.98;13.05;;;11.30;99.90;;;;;;5069998;28;20044;-73
2024/02/22 11:13:59;;;;;;;17.60;12.93;;;11.40;99.90;;;;;;5079553;28;20051;-74
2024/02/22 11:16:35;;;;;;;17.52;12.18;;;11.40;99.90;;;;;;5067198;28;20381;-74
2024/02/22 11:19:08;;;;;;;19.10;15.00;;;11.50;99.90;;;;;;5051252;28;20584;-73
2024/02/22 11:21:38;;;;;;;20.77;14.27;;;11.50;99.90;;;;;;5048542;28;20504;-74
2024/02/22 11:24:13;;;;;;;16.93;12.57;;;11.50;99.90;;;;;;5068947;28;20052;-73
2024/02/22 11:26:40;;;;;;;14.60;11.98;;;11.60;99.90;;;;;;5064343;28;20036;-73
2024/02/22 11:29:06;;;;;;;17.35;11.88;;;11.70;99.90;;;;;;5073394;28;20048;-75
2024/02/22 11:31:33;;;;;;;13.70;10.18;;;11.80;99.90;;;;;;5052299;28;20040;-75
2024/02/22 11:34:00;;;;;;;15.27;10.68;;;11.80;99.90;;;;;;5042078;28;20043;-75
2024/02/22 11:36:26;;;;;;;14.70;10.70;;;11.90;99.90;;;;;;5049936;28;20361;-76
2024/02/22 11:38:59;;;;;;;13.25;9.10;;;11.90;99.90;;;;;;5053826;28;20403;-75
2024/02/22 11:41:26;;;;;;;10.30;8.13;;;12.00;99.90;;;;;;5064080;28;20040;-75
2024/02/22 11:44:04;;;;;;;10.20;7.07;;;12.00;99.90;;;;;;5067186;28;20078;-75
2024/02/22 11:46:42;;;;;;;8.15;5.97;;;11.90;99.90;;;;;;5064187;28;20453;-76
2024/02/22 11:49:09;;;;;;;9.05;6.18;;;11.90;99.90;;;;;;5065754;28;20068;-76
2024/02/22 11:51:36;;;;;;;8.48;6.25;;;11.80;99.90;;;;;;5054556;28;20067;-75
2024/02/22 11:54:03;;;;;;;8.95;6.70;;;11.70;99.90;;;;;;5048464;28;20048;-76
2024/02/22 11:56:29;;;;;;;9.38;7.55;;;11.70;99.90;;;;;;5070202;28;20126;-75
2024/02/22 11:58:57;;;;;;;9.85;7.25;;;11.60;99.90;;;;;;5064548;28;20118;-76
2024/02/22 12:01:23;;;;;;;8.68;7.78;;;11.60;99.90;;;;;;5073747;28;20051;-76
2024/02/22 12:03:51;;;;;;;10.30;8.93;;;11.60;99.90;;;;;;5057944;28;20183;-75
2024/02/22 12:06:19;;;;;;;6.93;5.80;;;11.60;99.90;;;;;;5050331;28;20064;-76
2024/02/22 12:08:46;;;;;;;6.93;6.22;;;11.60;99.90;;;;;;5056891;28;20078;-76
2024/02/22 12:11:15;;;;;;;9.70;7.07;;;11.60;99.90;;;;;;5055027;28;20405;-76
2024/02/22 12:13:41;;;;;;;5.63;5.10;;;11.50;99.90;;;;;;5068933;28;20052;-76
2024/02/22 12:16:09;;;;;;;5.88;5.38;;;11.60;99.90;;;;;;5051978;28;20040;-76
2024/02/22 12:18:35;;;;;;;6.40;5.85;;;11.50;99.90;;;;;;5055704;28;20040;-76
2024/02/22 12:21:09;;;;;;;6.10;5.35;;;11.50;99.90;;;;;;5050790;28;20044;-76
2024/02/22 12:23:36;;;;;;;5.35;4.85;;;11.50;99.90;;;;;;5063558;28;20044;-76
2024/02/22 12:26:08;;;;;;;5.20;4.70;;;11.50;99.90;;;;;;5050023;28;20047;-76
2024/02/22 12:28:37;;;;;;;5.55;5.03;;;11.50;99.90;;;;;;5064311;28;20465;-76
2024/02/22 12:31:04;;;;;;;5.40;4.90;;;11.50;99.90;;;;;;5066431;28;20043;-75
2024/02/22 12:33:32;;;;;;;5.57;4.97;;;11.50;99.90;;;;;;5062328;28;20042;-76
2024/02/22 12:35:58;;;;;;;5.47;4.97;;;11.50;99.90;;;;;;5064421;28;20060;-75